Time;durP1;ratioP1;P1;durP2;ratioP2;P2;SDS_P1;SDS_P2;PMS_P1;PMS_P2;Temp;Humidity;BMP_temperature;BMP_pressure;BME280_temperature;BME280_humidity;BME280_pressure;Samples;Min_cycle;Max_cycle;Signal;HPM_P1;HPM_P2
2023/10/30 00:01:53;;;;;;;2.38;1.00;;;;;;;13.27;100.00;98976.31;10224586;29;20098;-58
2023/10/30 00:06:56;;;;;;;2.03;1.42;;;;;;;13.30;100.00;98954.59;10226050;29;20137;-58
2023/10/30 00:11:58;;;;;;;2.92;1.40;;;;;;;13.34;100.00;98969.28;10225420;29;20532;-58
2023/10/30 00:17:00;;;;;;;2.03;1.38;;;;;;;13.37;100.00;98990.31;10225378;28;20067;-58
2023/10/30 00:22:02;;;;;;;2.20;1.35;;;;;;;13.36;100.00;98977.13;10230319;28;20412;-58
2023/10/30 00:27:04;;;;;;;2.33;1.88;;;;;;;13.32;100.00;98984.63;10233107;29;20058;-58
2023/10/30 00:32:06;;;;;;;3.22;1.55;;;;;;;13.32;100.00;98995.31;10230160;29;20047;-58
2023/10/30 00:37:10;;;;;;;3.53;1.33;;;;;;;13.26;100.00;98988.81;10232458;29;20105;-58
2023/10/30 00:42:11;;;;;;;3.30;1.65;;;;;;;13.22;100.00;98989.34;10233777;29;20350;-59
2023/10/30 00:47:13;;;;;;;3.58;1.58;;;;;;;13.29;100.00;98979.63;10233578;28;20051;-59
2023/10/30 00:52:14;;;;;;;2.90;1.50;;;;;;;13.34;100.00;98988.00;10232789;28;20097;-58
2023/10/30 00:57:16;;;;;;;2.10;1.70;;;;;;;13.36;100.00;99002.03;10230793;28;20055;-58
2023/10/30 01:02:18;;;;;;;3.05;1.33;;;;;;;13.44;100.00;99014.53;10225431;29;20055;-58
2023/10/30 01:07:22;;;;;;;;;;;;;;;13.46;100.00;99006.34;10228649;29;20071;-59
2023/10/30 01:12:23;;;;;;;1.42;1.02;;;;;;;13.46;100.00;98984.97;10227969;29;19977;-59
2023/10/30 01:17:25;;;;;;;1.83;0.60;;;;;;;13.43;100.00;98986.94;10229801;28;20483;-59
2023/10/30 01:22:26;;;;;;;3.88;1.33;;;;;;;13.51;100.00;99041.41;10222066;29;20145;-58
2023/10/30 01:27:28;;;;;;;1.38;0.50;;;;;;;13.48;100.00;99033.72;10229879;28;20475;-58
2023/10/30 01:32:29;;;;;;;2.08;0.90;;;;;;;13.54;100.00;99019.66;10226923;28;20573;-58
2023/10/30 01:37:31;;;;;;;2.30;0.47;;;;;;;13.48;100.00;99004.31;10225587;29;20047;-57
2023/10/30 01:42:32;;;;;;;2.30;0.70;;;;;;;13.43;100.00;99019.03;10229901;29;20092;-58
2023/10/30 01:47:34;;;;;;;2.47;0.60;;;;;;;13.42;100.00;99001.34;10228224;29;20055;-59
2023/10/30 01:52:36;;;;;;;5.68;0.90;;;;;;;13.40;100.00;98997.97;10228798;29;20051;-59
2023/10/30 01:57:38;;;;;;;1.33;0.30;;;;;;;13.34;100.00;98988.00;10224455;29;20046;-58
2023/10/30 02:02:40;;;;;;;1.80;0.45;;;;;;;13.39;100.00;99001.69;10225755;29;20049;-59
2023/10/30 02:07:42;;;;;;;2.05;0.88;;;;;;;13.42;100.00;98995.13;10227854;28;20058;-58
2023/10/30 02:12:48;;;;;;;2.17;0.80;;;;;;;13.36;100.00;98959.28;10227582;29;20079;-58
2023/10/30 02:17:50;;;;;;;3.17;0.40;;;;;;;13.40;100.00;98992.63;10225608;29;20105;-58
2023/10/30 02:22:52;;;;;;;3.58;1.00;;;;;;;13.38;100.00;98996.50;10227372;29;20036;-59
2023/10/30 02:27:53;;;;;;;3.60;1.30;;;;;;;13.39;100.00;99001.69;10227462;28;20079;-59
2023/10/30 02:32:55;;;;;;;2.65;0.90;;;;;;;13.28;100.00;98977.97;10227437;29;20059;-59
2023/10/30 02:37:57;;;;;;;2.13;0.60;;;;;;;13.39;100.00;98984.78;10225627;29;20066;-59
2023/10/30 02:42:58;;;;;;;1.75;0.50;;;;;;;13.33;100.00;98988.13;10255204;28;20046;-58
2023/10/30 02:48:00;;;;;;;3.55;1.00;;;;;;;13.36;100.00;98988.66;10254365;29;20054;-58
2023/10/30 02:53:01;;;;;;;2.20;0.63;;;;;;;13.36;100.00;98974.44;10228106;29;20047;-58
2023/10/30 02:58:03;;;;;;;2.75;0.52;;;;;;;13.36;100.00;99014.53;10222205;29;20058;-58
2023/10/30 03:03:04;;;;;;;4.28;0.57;;;;;;;13.30;100.00;98994.69;10223697;28;20425;-59
2023/10/30 03:08:06;;;;;;;1.30;0.32;;;;;;;13.26;100.00;98969.28;10224262;29;20156;-58
2023/10/30 03:13:08;;;;;;;1.23;0.38;;;;;;;13.24;100.00;98992.66;10163640;28;20062;-59
2023/10/30 03:18:09;;;;;;;3.13;0.38;;;;;;;13.18;100.00;98963.97;10190350;28;20733;-59
2023/10/30 03:23:11;;;;;;;1.25;0.32;;;;;;;13.17;100.00;98940.94;10195691;28;20058;-60
2023/10/30 03:28:12;;;;;;;2.95;0.43;;;;;;;13.22;100.00;98984.81;10194249;28;20075;-59
2023/10/30 03:33:14;;;;;;;2.80;0.70;;;;;;;13.17;100.00;98948.94;10149052;28;20051;-59
2023/10/30 03:38:16;;;;;;;1.08;0.43;;;;;;;13.38;100.00;98991.16;10195697;28;20251;-58
2023/10/30 03:43:17;;;;;;;2.65;0.80;;;;;;;13.32;100.00;98983.81;10175372;28;20066;-58
2023/10/30 03:48:19;;;;;;;1.10;0.43;;;;;;;13.31;100.00;99011.53;10136564;28;20067;-59
2023/10/30 03:53:21;;;;;;;1.67;0.32;;;;;;;13.34;100.00;98990.66;10187288;28;20055;-58
2023/10/30 03:58:22;;;;;;;2.40;0.55;;;;;;;13.30;100.00;98977.78;10178531;28;20718;-59
2023/10/30 04:03:24;;;;;;;2.25;0.38;;;;;;;13.30;100.00;99002.69;10199528;28;20871;-59
2023/10/30 04:08:25;;;;;;;2.67;0.52;;;;;;;13.26;100.00;99041.44;10199918;28;20574;-59
2023/10/30 04:13:27;;;;;;;2.38;0.40;;;;;;;13.22;100.00;99008.03;10199304;28;20137;-59
2023/10/30 04:18:28;;;;;;;5.53;0.50;;;;;;;13.10;100.00;98991.53;10202305;28;20334;-59
2023/10/30 04:23:30;;;;;;;3.42;0.50;;;;;;;13.16;100.00;99000.72;10183555;28;20052;-59
2023/10/30 04:28:33;;;;;;;3.05;0.75;;;;;;;13.16;100.00;99011.41;10198413;28;20781;-59
2023/10/30 04:33:34;;;;;;;4.57;0.82;;;;;;;13.19;100.00;99011.06;10196855;28;20054;-58
2023/10/30 04:38:39;;;;;;;1.60;0.50;;;;;;;13.16;100.00;98992.69;10181154;28;20066;-58
2023/10/30 04:43:40;;;;;;;3.22;0.63;;;;;;;13.09;100.00;99001.41;10197031;28;20058;-60
2023/10/30 04:48:42;;;;;;;2.78;0.70;;;;;;;13.13;100.00;98996.53;10163704;28;20131;-58
2023/10/30 04:53:43;;;;;;;4.95;1.10;;;;;;;13.06;100.00;98968.84;10185012;28;20043;-59
2023/10/30 04:58:45;;;;;;;3.35;0.55;;;;;;;13.15;100.00;98959.81;10193969;28;20059;-59
2023/10/30 05:03:48;;;;;;;2.03;0.50;;;;;;;13.14;100.00;98951.97;10186782;28;21394;-61
2023/10/30 05:08:49;;;;;;;2.00;0.28;;;;;;;13.09;100.00;98969.34;10197292;28;20039;-59
2023/10/30 05:13:51;;;;;;;3.00;0.65;;;;;;;13.13;100.00;98979.69;10198819;28;20225;-58
2023/10/30 05:18:54;;;;;;;1.05;0.22;;;;;;;13.15;100.00;98983.00;10165775;28;20725;-59
2023/10/30 05:23:56;;;;;;;2.25;0.57;;;;;;;13.12;100.00;98996.72;10199557;28;20050;-58
2023/10/30 05:28:57;;;;;;;1.75;0.38;;;;;;;13.09;100.00;98985.38;10199582;28;20058;-62
2023/10/30 05:33:59;;;;;;;2.30;0.45;;;;;;;13.07;100.00;99002.56;10183185;28;20616;-58
2023/10/30 05:39:01;;;;;;;4.28;1.08;;;;;;;13.04;100.00;99000.22;10198236;28;20719;-59
2023/10/30 05:44:04;;;;;;;3.47;1.25;;;;;;;12.95;100.00;98999.41;10194398;28;20079;-59
2023/10/30 05:49:07;;;;;;;3.35;0.50;;;;;;;12.79;100.00;99036.81;10197740;28;20058;-58
2023/10/30 05:54:08;;;;;;;1.92;0.65;;;;;;;12.93;100.00;99054.03;10182388;28;20079;-58
2023/10/30 05:59:10;;;;;;;1.17;0.20;;;;;;;12.98;100.00;99068.53;10169157;28;20219;-59
2023/10/30 06:04:12;;;;;;;4.00;0.75;;;;;;;12.97;100.00;99066.88;10171155;28;20055;-59
2023/10/30 06:09:14;;;;;;;2.22;0.57;;;;;;;12.96;100.00;99057.19;10172571;28;20134;-59
2023/10/30 06:14:17;;;;;;;4.25;0.88;;;;;;;12.95;100.00;99036.81;10174960;28;20075;-59
2023/10/30 06:19:19;;;;;;;3.35;0.60;;;;;;;12.75;100.00;99000.78;10166286;28;20289;-59
2023/10/30 06:24:20;;;;;;;1.95;0.85;;;;;;;12.59;100.00;98994.44;10169197;28;21016;-59
2023/10/30 06:29:22;;;;;;;1.35;0.85;;;;;;;12.62;100.00;98990.59;10160242;28;20705;-59
2023/10/30 06:34:23;;;;;;;1.67;0.50;;;;;;;12.66;100.00;99006.13;10159482;28;20047;-59
2023/10/30 06:39:25;;;;;;;1.23;0.43;;;;;;;12.69;100.00;99005.78;10170175;28;20074;-58
2023/10/30 06:44:27;;;;;;;1.65;0.40;;;;;;;12.79;100.00;99032.34;10170968;28;22152;-60
2023/10/30 06:49:29;;;;;;;1.98;0.43;;;;;;;12.82;100.00;99057.84;10165665;28;20186;-58
2023/10/30 06:54:30;;;;;;;1.38;0.50;;;;;;;12.75;100.00;99041.66;10169761;28;20047;-58
2023/10/30 06:59:32;;;;;;;2.15;1.92;;;;;;;12.87;100.00;99050.19;10171203;28;20646;-60
2023/10/30 07:04:33;;;;;;;2.28;1.00;;;;;;;12.88;100.00;99036.66;10161531;28;20796;-59
2023/10/30 07:09:35;;;;;;;6.40;5.80;;;;;;;12.89;100.00;99042.81;10165897;28;20117;-59
2023/10/30 07:14:39;;;;;;;7.68;6.28;;;;;;;12.93;100.00;99043.34;10172236;28;26860;-59
2023/10/30 07:19:41;;;;;;;6.28;5.68;;;;;;;13.05;100.00;99045.47;10155827;28;20067;-59
2023/10/30 07:24:43;;;;;;;3.65;2.70;;;;;;;13.08;100.00;99046.97;10165280;28;20043;-59
2023/10/30 07:29:45;;;;;;;5.20;2.33;;;;;;;13.05;100.00;99040.13;10172020;28;20058;-59
2023/10/30 07:34:47;;;;;;;5.45;5.03;;;;;;;13.08;100.00;99049.66;10162764;28;20468;-59
2023/10/30 07:39:48;;;;;;;2.25;0.90;;;;;;;13.06;100.00;99035.63;10152349;28;20058;-58
2023/10/30 07:44:50;;;;;;;2.95;2.17;;;;;;;13.10;100.00;99042.28;10162056;28;20086;-59
2023/10/30 07:49:52;;;;;;;2.72;2.20;;;;;;;13.05;100.00;99036.63;10173306;28;20059;-58
2023/10/30 07:54:54;;;;;;;4.43;0.70;;;;;;;13.05;100.00;99050.81;10166342;28;20064;-60
2023/10/30 07:59:56;;;;;;;2.95;1.00;;;;;;;12.94;100.00;99053.84;10146162;28;20583;-60
2023/10/30 08:04:59;;;;;;;2.60;0.90;;;;;;;12.95;100.00;99058.16;10167940;28;20202;-61
2023/10/30 08:10:01;;;;;;;4.50;0.93;;;;;;;12.97;100.00;99066.00;10166297;28;21046;-60
2023/10/30 08:15:05;;;;;;;1.80;0.70;;;;;;;13.07;100.00;99062.16;10168626;28;20058;-58
2023/10/30 08:20:09;;;;;;;3.10;0.70;;;;;;;13.11;100.00;99057.34;10166531;28;20587;-58
2023/10/30 08:25:11;;;;;;;4.47;1.30;;;;;;;13.14;100.00;99058.84;10166681;28;20645;-57
2023/10/30 08:30:13;;;;;;;5.60;1.27;;;;;;;13.11;100.00;99056.50;10166802;28;20603;-56
2023/10/30 08:35:15;;;;;;;2.45;1.10;;;;;;;13.11;100.00;99051.16;10167957;28;20059;-58
2023/10/30 08:40:17;;;;;;;3.70;1.55;;;;;;;13.14;100.00;99048.16;10167596;28;20065;-58
2023/10/30 08:45:20;;;;;;;2.50;0.82;;;;;;;13.16;100.00;99059.50;10175761;28;20757;-58
2023/10/30 08:50:21;;;;;;;2.85;0.65;;;;;;;13.08;100.00;99057.66;10171115;28;20078;-59
2023/10/30 08:55:26;;;;;;;2.97;0.90;;;;;;;13.11;100.00;99056.50;10152769;28;20055;-59
2023/10/30 09:00:28;;;;;;;3.22;1.02;;;;;;;13.22;100.00;99064.16;10157888;28;20055;-59
2023/10/30 09:05:29;;;;;;;2.58;1.23;;;;;;;13.25;100.00;99053.94;10172510;28;20086;-59
2023/10/30 09:10:34;;;;;;;3.85;2.03;;;;;;;13.19;100.00;99035.09;10169513;28;20746;-60
2023/10/30 09:15:36;;;;;;;2.30;0.80;;;;;;;13.28;100.00;99034.06;10171331;28;20066;-58
2023/10/30 09:20:38;;;;;;;2.20;0.73;;;;;;;13.34;100.00;99008.53;10171329;28;20047;-58
2023/10/30 09:25:39;;;;;;;1.15;0.70;;;;;;;13.39;100.00;98996.34;10170836;28;20047;-57
2023/10/30 09:30:41;;;;;;;2.72;1.00;;;;;;;13.40;100.00;98987.28;10166784;28;20422;-59
2023/10/30 09:35:43;;;;;;;3.10;0.65;;;;;;;13.40;100.00;98951.72;10161341;28;20066;-57
2023/10/30 09:40:56;;;;;;;2.45;0.80;;;;;;;13.47;100.00;98962.56;10169292;28;20166;-57
2023/10/30 09:46:00;;;;;;;1.95;0.85;;;;;;;13.49;100.00;98957.88;10169798;28;20086;-58
2023/10/30 09:51:03;;;;;;;1.97;0.70;;;;;;;13.58;100.00;98956.81;10187144;28;20051;-57
2023/10/30 09:56:08;;;;;;;4.40;0.70;;;;;;;13.63;100.00;98953.63;10192967;28;20046;-58
2023/10/30 10:01:11;;;;;;;3.80;1.08;;;;;;;13.61;100.00;98940.44;10201065;28;20309;-58
2023/10/30 10:06:13;;;;;;;2.47;1.05;;;;;;;13.74;100.00;98932.66;10187157;28;20907;-58
2023/10/30 10:11:15;;;;;;;1.55;0.75;;;;;;;13.93;100.00;98917.16;10159319;28;20581;-59
2023/10/30 10:16:17;;;;;;;3.13;0.77;;;;;;;14.15;100.00;98904.81;10171287;28;20432;-59
2023/10/30 10:21:21;;;;;;;2.05;1.08;;;;;;;14.27;100.00;98883.81;10167796;28;20098;-57
2023/10/30 10:26:29;;;;;;;3.00;1.80;;;;;;;14.32;100.00;98890.28;10172015;28;20125;-59
2023/10/30 10:31:31;;;;;;;2.40;1.13;;;;;;;14.38;100.00;98906.63;10175899;28;20140;-58
2023/10/30 10:36:32;;;;;;;6.18;1.17;;;;;;;14.32;100.00;98889.44;10172321;28;20071;-59
2023/10/30 10:41:37;;;;;;;2.38;1.10;;;;;;;14.34;100.00;98903.47;10173877;28;20062;-58
2023/10/30 10:46:38;;;;;;;;;;;;;;;14.29;100.00;98896.00;10171569;28;21033;-58
2023/10/30 10:51:46;;;;;;;1.42;0.80;;;;;;;14.26;100.00;98901.72;10159446;28;20394;-59
2023/10/30 10:56:52;;;;;;;2.72;1.00;;;;;;;14.23;100.00;98888.69;10150346;28;20336;-58
2023/10/30 11:01:56;;;;;;;2.30;1.00;;;;;;;14.34;100.00;98892.78;10170572;28;20552;-58
2023/10/30 11:07:02;;;;;;;5.93;5.13;;;;;;;14.34;100.00;98876.72;10168984;28;20067;-57
2023/10/30 11:12:30;;;;;;;1.63;1.05;;;;;;;14.36;100.00;98857.78;10162522;28;20055;-58
2023/10/30 11:17:32;;;;;;;2.17;0.80;;;;;;;14.41;100.00;98837.50;10171678;28;20620;-58
2023/10/30 11:22:38;;;;;;;3.72;1.30;;;;;;;14.43;100.00;98821.25;10171961;28;20047;-58
2023/10/30 11:27:42;;;;;;;2.67;0.85;;;;;;;14.44;100.00;98807.69;10165558;28;20090;-57
2023/10/30 11:32:44;;;;;;;2.08;0.65;;;;;;;14.45;100.00;98782.56;10164293;28;20059;-58
2023/10/30 11:37:45;;;;;;;2.38;1.00;;;;;;;14.40;100.00;98771.59;10160081;28;20055;-57
2023/10/30 11:42:47;;;;;;;4.38;0.75;;;;;;;14.47;100.00;98775.19;10170837;28;20063;-58
2023/10/30 11:48:03;;;;;;;2.55;1.05;;;;;;;14.68;100.00;98770.94;10146260;28;20500;-59
2023/10/30 11:53:10;;;;;;;1.88;0.60;;;;;;;14.74;100.00;98732.72;10154485;28;20068;-57
2023/10/30 11:58:11;;;;;;;0.75;0.45;;;;;;;14.98;100.00;98762.88;10138529;28;20184;-58
2023/10/30 12:03:14;;;;;;;1.75;0.52;;;;;;;14.98;100.00;98749.47;10169649;28;20150;-58
2023/10/30 12:08:16;;;;;;;2.28;0.50;;;;;;;14.92;100.00;98736.81;10171447;28;20051;-58
2023/10/30 12:13:18;;;;;;;2.08;0.40;;;;;;;14.85;100.00;98718.84;10164556;28;20377;-58
2023/10/30 12:18:22;;;;;;;1.85;1.02;;;;;;;15.00;100.00;98697.34;10150823;28;20078;-56
2023/10/30 12:23:23;;;;;;;1.42;0.50;;;;;;;15.07;100.00;98685.88;10177004;28;20555;-57
2023/10/30 12:28:36;;;;;;;1.60;0.70;;;;;;;15.23;100.00;98698.19;10175490;28;20142;-58
2023/10/30 12:33:39;;;;;;;2.38;0.82;;;;;;;15.29;100.00;98686.72;10175449;28;20054;-58
2023/10/30 12:38:41;;;;;;;2.47;0.57;;;;;;;15.20;100.00;98660.03;10176222;28;20463;-59
2023/10/30 12:43:44;;;;;;;1.02;0.50;;;;;;;15.28;100.00;98669.81;10141059;28;20075;-60
2023/10/30 12:48:46;;;;;;;1.00;0.45;;;;;;;15.30;100.00;98672.28;10171444;28;20082;-59
2023/10/30 12:53:47;;;;;;;3.20;0.57;;;;;;;15.24;98.37;98662.31;10173172;28;20047;-60
2023/10/30 12:58:51;;;;;;;0.88;0.40;;;;;;;15.10;99.67;98640.78;10157683;28;20063;-60
2023/10/30 13:03:53;;;;;;;1.23;0.17;;;;;;;15.10;97.09;98640.78;10177170;28;20059;-59
2023/10/30 13:08:56;;;;;;;2.58;0.40;;;;;;;14.96;98.67;98614.88;10177971;28;20055;-60
2023/10/30 13:13:58;;;;;;;3.00;0.52;;;;;;;15.04;98.76;98622.78;10170892;28;20727;-59
2023/10/30 13:19:00;;;;;;;0.70;0.40;;;;;;;15.01;99.24;98620.47;10170461;28;20055;-59
2023/10/30 13:24:04;;;;;;;2.08;0.73;;;;;;;14.96;99.83;98609.50;10172476;28;20055;-59
2023/10/30 13:29:05;;;;;;;1.03;0.60;;;;;;;14.99;100.00;98593.06;10178059;28;20685;-58
2023/10/30 13:34:07;;;;;;;4.85;0.73;;;;;;;15.02;100.00;98574.72;10155453;28;20647;-58
2023/10/30 13:39:09;;;;;;;2.38;0.85;;;;;;;15.00;100.00;98570.63;10173715;28;20433;-59
2023/10/30 13:44:10;;;;;;;1.60;0.60;;;;;;;15.00;100.00;98565.25;10157615;28;20067;-59
2023/10/30 13:49:12;;;;;;;3.13;0.88;;;;;;;14.97;100.00;98509.38;10174970;28;20070;-59
2023/10/30 13:54:17;;;;;;;1.88;0.90;;;;;;;15.06;100.00;98505.53;10175997;28;20151;-60
2023/10/30 13:59:19;;;;;;;1.13;0.60;;;;;;;15.11;100.00;98505.75;10165639;28;20106;-58
2023/10/30 14:04:21;;;;;;;1.70;1.00;;;;;;;15.13;100.00;98511.75;10171939;28;20051;-57
2023/10/30 14:09:22;;;;;;;2.30;0.70;;;;;;;15.16;100.00;98487.25;10171321;28;20059;-59
2023/10/30 14:14:24;;;;;;;1.75;1.02;;;;;;;15.23;100.00;98489.97;10170230;28;20051;-58
2023/10/30 14:19:26;;;;;;;1.50;1.15;;;;;;;15.25;100.00;98469.13;10161064;28;20066;-57
2023/10/30 14:24:27;;;;;;;1.85;1.17;;;;;;;15.29;100.00;98483.00;10163351;28;20126;-58
2023/10/30 14:29:29;;;;;;;3.30;1.38;;;;;;;15.28;100.00;98476.81;10176125;28;20419;-58
2023/10/30 14:34:30;;;;;;;4.13;1.40;;;;;;;15.35;100.00;98506.31;10176846;28;20063;-58
2023/10/30 14:39:35;;;;;;;2.17;1.42;;;;;;;15.34;100.00;98486.75;10174372;28;20047;-59
2023/10/30 14:44:38;;;;;;;2.95;1.50;;;;;;;15.34;100.00;98456.41;10180030;28;20061;-58
2023/10/30 14:49:39;;;;;;;1.67;1.10;;;;;;;15.38;100.00;98457.69;10175054;28;20056;-58
2023/10/30 14:54:42;;;;;;;2.55;1.02;;;;;;;15.37;100.00;98464.06;10173205;28;20062;-59
2023/10/30 14:59:44;;;;;;;3.95;1.23;;;;;;;15.34;100.00;98448.38;10163138;28;20071;-59
2023/10/30 15:04:46;;;;;;;2.65;1.38;;;;;;;15.35;100.00;98452.72;10174056;28;20058;-59
2023/10/30 15:09:48;;;;;;;3.08;1.80;;;;;;;15.36;100.00;98454.38;10172517;28;20066;-59
2023/10/30 15:14:49;;;;;;;2.65;1.17;;;;;;;15.34;100.00;98443.00;10158583;28;20185;-59
2023/10/30 15:19:53;;;;;;;2.03;1.35;;;;;;;15.27;100.00;98416.19;10158866;28;20827;-58
2023/10/30 15:24:55;;;;;;;2.47;1.33;;;;;;;15.32;100.00;98437.03;10159845;28;20051;-58
2023/10/30 15:29:57;;;;;;;4.00;3.03;;;;;;;15.24;100.00;98426.44;10167644;28;20798;-58
2023/10/30 15:34:59;;;;;;;3.35;3.05;;;;;;;15.24;100.00;98437.19;10168799;28;20257;-59
2023/10/30 15:40:00;;;;;;;3.17;1.33;;;;;;;15.25;100.00;98455.72;10169541;28;20056;-58
2023/10/30 15:45:03;;;;;;;3.17;1.42;;;;;;;15.25;100.00;98442.34;10154321;28;20078;-58
2023/10/30 15:50:05;;;;;;;2.67;1.67;;;;;;;15.29;100.00;98424.03;10159741;28;20056;-58
2023/10/30 15:55:07;;;;;;;2.35;1.42;;;;;;;15.29;100.00;98418.66;10167403;28;20266;-58
2023/10/30 16:00:09;;;;;;;2.78;1.52;;;;;;;15.22;100.00;98413.25;10135749;28;20051;-58
2023/10/30 16:05:10;;;;;;;2.05;1.33;;;;;;;15.29;100.00;98406.06;10172241;28;20119;-59
2023/10/30 16:10:14;;;;;;;2.97;2.00;;;;;;;15.30;100.00;98396.19;10174607;28;20056;-58
2023/10/30 16:15:19;;;;;;;2.22;1.83;;;;;;;15.29;100.00;98399.91;10169741;28;20058;-58
2023/10/30 16:20:21;;;;;;;2.05;1.73;;;;;;;15.28;100.00;98398.25;10175542;28;20059;-58
2023/10/30 16:25:24;;;;;;;1.33;1.10;;;;;;;15.28;100.00;98395.56;10174484;28;20047;-58
2023/10/30 16:30:26;;;;;;;3.08;1.70;;;;;;;15.15;100.00;98391.78;10177581;28;20062;-57
2023/10/30 16:35:29;;;;;;;2.85;2.45;;;;;;;15.22;100.00;98377.59;10165558;28;20763;-59
2023/10/30 16:40:30;;;;;;;4.88;1.80;;;;;;;15.17;100.00;98340.69;10177555;28;20058;-57
2023/10/30 16:45:32;;;;;;;3.38;1.67;;;;;;;15.25;100.00;98347.72;10167236;28;20058;-59
2023/10/30 16:50:34;;;;;;;3.22;1.83;;;;;;;15.23;100.00;98355.13;10167531;28;20227;-58
2023/10/30 16:55:36;;;;;;;2.67;1.90;;;;;;;15.26;100.00;98360.09;10176064;28;20059;-58
2023/10/30 17:00:37;;;;;;;2.03;1.08;;;;;;;15.24;100.00;98365.66;10174087;28;20058;-58
2023/10/30 17:05:39;;;;;;;2.88;1.85;;;;;;;15.23;100.00;98365.84;10162310;28;20131;-58
2023/10/30 17:10:40;;;;;;;4.43;2.80;;;;;;;15.24;100.00;98372.84;10178213;28;20118;-59
2023/10/30 17:15:42;;;;;;;5.78;3.33;;;;;;;15.23;100.00;98377.41;10177877;28;20070;-58
2023/10/30 17:20:44;;;;;;;3.10;2.33;;;;;;;15.23;100.00;98390.78;10177825;28;20703;-58
2023/10/30 17:25:46;;;;;;;3.88;2.63;;;;;;;15.16;100.00;98382.75;10176589;28;20524;-59
2023/10/30 17:30:48;;;;;;;3.58;2.58;;;;;;;15.17;100.00;98368.28;10173308;28;20047;-58
2023/10/30 17:35:50;;;;;;;3.55;2.38;;;;;;;15.18;100.00;98358.41;10183596;28;20054;-59
2023/10/30 17:40:52;;;;;;;6.25;5.03;;;;;;;15.10;100.00;98367.47;10160141;28;20054;-58
2023/10/30 17:45:55;;;;;;;5.35;4.47;;;;;;;15.15;100.00;98375.72;10147043;28;20594;-58
2023/10/30 17:50:57;;;;;;;3.83;2.40;;;;;;;15.14;100.00;98373.22;10177814;28;20086;-58
2023/10/30 17:55:58;;;;;;;4.50;3.58;;;;;;;15.11;100.00;98363.72;10174546;28;20303;-58
2023/10/30 18:01:00;;;;;;;6.25;5.75;;;;;;;15.09;100.00;98376.50;10174286;28;20668;-58
2023/10/30 18:06:02;;;;;;;4.25;3.28;;;;;;;14.92;100.00;98375.16;10173320;28;20054;-58
2023/10/30 18:11:05;;;;;;;5.70;3.88;;;;;;;15.03;100.00;98393.38;10179396;28;20055;-56
2023/10/30 18:16:07;;;;;;;5.50;4.18;;;;;;;14.99;100.00;98398.28;10171298;28;20138;-58
2023/10/30 18:21:09;;;;;;;5.88;4.32;;;;;;;14.98;100.00;98395.81;10172162;28;20059;-60
2023/10/30 18:26:10;;;;;;;6.85;3.90;;;;;;;14.91;100.00;98384.25;10153219;28;20059;-58
2023/10/30 18:31:12;;;;;;;4.10;3.47;;;;;;;14.97;100.00;98394.19;10162049;28;20118;-58
2023/10/30 18:36:13;;;;;;;6.30;3.67;;;;;;;14.98;100.00;98387.78;10172106;28;20059;-58
2023/10/30 18:41:15;;;;;;;6.65;4.55;;;;;;;14.94;100.00;98389.22;10171043;28;20646;-57
2023/10/30 18:46:17;;;;;;;5.90;4.25;;;;;;;14.84;100.00;98374.31;10174947;28;20062;-58
2023/10/30 18:51:19;;;;;;;6.82;4.55;;;;;;;14.87;100.00;98382.97;10175708;28;20062;-60
2023/10/30 18:56:21;;;;;;;5.25;4.55;;;;;;;14.90;100.00;98366.50;10162424;28;20055;-58
2023/10/30 19:01:22;;;;;;;5.55;4.10;;;;;;;14.89;100.00;98376.38;10147753;28;20077;-58
2023/10/30 19:06:24;;;;;;;4.28;3.72;;;;;;;14.91;100.00;98374.34;10166859;28;20185;-57
2023/10/30 19:11:26;;;;;;;7.07;3.92;;;;;;;14.80;100.00;98354.31;10175046;28;20248;-56
2023/10/30 19:16:29;;;;;;;5.15;3.72;;;;;;;14.82;100.00;98354.94;10170879;28;20052;-57
2023/10/30 19:21:31;;;;;;;5.90;3.47;;;;;;;14.86;100.00;98363.38;10168633;28;20052;-57
2023/10/30 19:26:33;;;;;;;5.53;3.78;;;;;;;14.90;100.00;98361.97;10169804;28;20363;-58
2023/10/30 19:31:34;;;;;;;6.18;3.85;;;;;;;14.89;100.00;98364.84;10160352;28;20059;-58
2023/10/30 19:36:36;;;;;;;6.10;3.97;;;;;;;14.92;100.00;98364.47;10173820;28;20058;-58
2023/10/30 19:41:38;;;;;;;4.30;3.58;;;;;;;14.93;100.00;98358.09;10165041;28;20055;-58
2023/10/30 19:46:40;;;;;;;4.75;3.72;;;;;;;14.93;100.00;98355.41;10172237;28;20055;-58
2023/10/30 19:51:44;;;;;;;7.57;5.53;;;;;;;14.91;100.00;98346.75;10171698;28;20062;-56
2023/10/30 19:56:56;;;;;;;5.40;3.80;;;;;;;14.84;100.00;98352.88;10154882;28;20047;-57
2023/10/30 20:01:58;;;;;;;6.10;4.40;;;;;;;14.81;100.00;98342.56;10160393;28;20545;-58
2023/10/30 20:07:01;;;;;;;6.78;3.75;;;;;;;14.81;100.00;98339.06;10169582;28;20087;-59
2023/10/30 20:12:03;;;;;;;4.85;3.60;;;;;;;14.75;100.00;98321.09;10174287;28;20059;-58
2023/10/30 20:17:05;;;;;;;5.05;3.70;;;;;;;14.80;100.00;98329.34;10169002;28;20114;-58
2023/10/30 20:22:06;;;;;;;4.55;3.15;;;;;;;14.71;100.00;98317.97;10140452;28;20071;-59
2023/10/30 20:27:08;;;;;;;5.40;3.58;;;;;;;14.74;100.00;98322.13;10157893;28;20109;-60
2023/10/30 20:32:09;;;;;;;7.45;4.38;;;;;;;14.63;100.00;98302.09;10132090;28;20075;-58
2023/10/30 20:37:11;;;;;;;6.95;4.82;;;;;;;14.63;100.00;98292.19;10171067;28;21015;-59
2023/10/30 20:42:13;;;;;;;6.10;4.22;;;;;;;14.68;100.00;98288.91;10158316;28;20056;-57
2023/10/30 20:47:15;;;;;;;4.30;3.28;;;;;;;14.68;100.00;98291.59;10169454;28;20643;-57
2023/10/30 20:52:17;;;;;;;4.10;3.55;;;;;;;14.62;100.00;98289.72;10133117;28;20063;-57
2023/10/30 20:57:18;;;;;;;5.15;4.57;;;;;;;14.63;100.00;98310.94;10161530;28;20198;-57
2023/10/30 21:02:20;;;;;;;5.00;4.32;;;;;;;14.67;100.00;98303.34;10172634;28;20066;-59
2023/10/30 21:07:22;;;;;;;5.65;5.07;;;;;;;14.70;100.00;98311.00;10133691;28;20059;-57
2023/10/30 21:12:23;;;;;;;6.47;5.10;;;;;;;14.68;100.00;98307.66;10164412;28;20142;-58
2023/10/30 21:17:26;;;;;;;5.75;5.22;;;;;;;14.68;100.00;98304.97;10197538;28;20051;-59
2023/10/30 21:22:31;;;;;;;5.88;5.25;;;;;;;14.58;100.00;98299.16;10197881;28;20059;-57
2023/10/30 21:27:33;;;;;;;6.60;5.53;;;;;;;14.54;100.00;98292.53;10197539;28;20055;-58
2023/10/30 21:32:35;;;;;;;7.05;6.22;;;;;;;14.53;100.00;98298.91;10198093;28;20298;-58
2023/10/30 21:37:37;;;;;;;7.05;6.28;;;;;;;14.54;100.00;98288.00;10195046;28;20841;-59
2023/10/30 21:42:38;;;;;;;6.20;5.60;;;;;;;14.48;100.00;98283.44;10178655;28;20082;-58
2023/10/30 21:47:40;;;;;;;7.43;6.80;;;;;;;14.44;100.00;98288.38;10193547;28;20145;-57
2023/10/30 21:52:42;;;;;;;6.68;5.95;;;;;;;14.45;100.00;98283.81;10194254;28;20051;-58
2023/10/30 21:57:43;;;;;;;7.65;5.82;;;;;;;14.43;100.00;98288.56;10154255;28;20055;-57
2023/10/30 22:02:46;;;;;;;6.55;5.85;;;;;;;14.33;100.00;98275.50;10154745;28;20536;-58
2023/10/30 22:07:51;;;;;;;7.20;6.53;;;;;;;14.26;100.00;98280.84;10190417;28;20055;-58
2023/10/30 22:12:53;;;;;;;7.05;6.35;;;;;;;14.20;100.00;98286.97;10195025;28;20051;-58
2023/10/30 22:17:54;;;;;;;7.18;6.47;;;;;;;14.12;100.00;98287.09;10187479;28;20582;-58
2023/10/30 22:22:57;;;;;;;7.05;6.35;;;;;;;14.15;100.00;98290.19;10192038;28;20054;-58
2023/10/30 22:27:58;;;;;;;6.50;5.90;;;;;;;14.13;100.00;98289.59;10191541;28;20055;-58
2023/10/30 22:33:00;;;;;;;5.85;5.25;;;;;;;14.09;100.00;98300.88;10198808;28;20047;-58
2023/10/30 22:38:02;;;;;;;6.63;6.07;;;;;;;14.06;100.00;98312.78;10192844;28;20103;-59
2023/10/30 22:43:04;;;;;;;5.68;5.05;;;;;;;13.95;100.00;98310.63;10189909;28;20062;-58
2023/10/30 22:48:05;;;;;;;5.63;4.97;;;;;;;13.91;100.00;98298.66;10186321;28;20105;-58
2023/10/30 22:53:07;;;;;;;5.78;4.75;;;;;;;14.00;100.00;98318.91;10194836;28;20178;-57
2023/10/30 22:58:09;;;;;;;4.45;3.80;;;;;;;13.93;100.00;98324.22;10186433;28;20105;-57
2023/10/30 23:03:11;;;;;;;5.28;4.20;;;;;;;13.91;100.00;98326.22;10195059;28;20055;-57
2023/10/30 23:08:12;;;;;;;4.70;3.85;;;;;;;13.82;100.00;98313.19;10189966;28;20058;-57